sensor_id;sensor_type;location;lat;lon;timestamp;P1;durP1;ratioP1;P2;durP2;ratioP2
13061;SDS011;6597;52.218;9.882;2023-01-30T00:02:00;18.40;;;8.43;;
13061;SDS011;6597;52.218;9.882;2023-01-30T00:04:28;16.47;;;9.70;;
13061;SDS011;6597;52.218;9.882;2023-01-30T00:06:54;21.70;;;8.27;;
13061;SDS011;6597;52.218;9.882;2023-01-30T00:09:21;19.97;;;8.73;;
13061;SDS011;6597;52.218;9.882;2023-01-30T00:11:47;17.17;;;8.17;;
13061;SDS011;6597;52.218;9.882;2023-01-30T00:14:14;19.73;;;8.10;;
13061;SDS011;6597;52.218;9.882;2023-01-30T00:16:41;13.27;;;6.47;;
13061;SDS011;6597;52.218;9.882;2023-01-30T00:19:07;19.53;;;6.77;;
13061;SDS011;6597;52.218;9.882;2023-01-30T00:21:35;14.10;;;7.53;;
13061;SDS011;6597;52.218;9.882;2023-01-30T00:24:02;16.00;;;7.67;;
13061;SDS011;6597;52.218;9.882;2023-01-30T00:26:29;15.17;;;7.50;;
13061;SDS011;6597;52.218;9.882;2023-01-30T00:28:55;12.20;;;5.57;;
13061;SDS011;6597;52.218;9.882;2023-01-30T00:31:22;11.90;;;7.10;;
13061;SDS011;6597;52.218;9.882;2023-01-30T00:33:48;13.70;;;7.07;;
13061;SDS011;6597;52.218;9.882;2023-01-30T00:36:15;14.53;;;6.37;;
13061;SDS011;6597;52.218;9.882;2023-01-30T00:38:44;13.90;;;6.87;;
13061;SDS011;6597;52.218;9.882;2023-01-30T00:41:10;16.13;;;7.40;;
13061;SDS011;6597;52.218;9.882;2023-01-30T00:43:40;11.33;;;6.33;;
13061;SDS011;6597;52.218;9.882;2023-01-30T00:46:25;13.53;;;7.57;;
13061;SDS011;6597;52.218;9.882;2023-01-30T00:49:12;16.07;;;7.97;;
13061;SDS011;6597;52.218;9.882;2023-01-30T00:51:39;17.50;;;8.27;;
13061;SDS011;6597;52.218;9.882;2023-01-30T00:54:07;14.70;;;8.47;;
13061;SDS011;6597;52.218;9.882;2023-01-30T00:56:34;18.60;;;9.07;;
13061;SDS011;6597;52.218;9.882;2023-01-30T00:59:01;14.03;;;6.80;;
13061;SDS011;6597;52.218;9.882;2023-01-30T01:01:28;13.53;;;7.50;;
13061;SDS011;6597;52.218;9.882;2023-01-30T01:03:55;14.90;;;7.70;;
13061;SDS011;6597;52.218;9.882;2023-01-30T01:06:21;20.97;;;9.30;;
13061;SDS011;6597;52.218;9.882;2023-01-30T01:08:48;17.63;;;8.60;;
13061;SDS011;6597;52.218;9.882;2023-01-30T01:11:15;18.53;;;8.23;;
13061;SDS011;6597;52.218;9.882;2023-01-30T01:13:48;15.83;;;7.97;;
13061;SDS011;6597;52.218;9.882;2023-01-30T01:16:16;17.17;;;8.47;;
13061;SDS011;6597;52.218;9.882;2023-01-30T01:18:44;16.23;;;7.83;;
13061;SDS011;6597;52.218;9.882;2023-01-30T01:21:11;19.23;;;8.33;;
13061;SDS011;6597;52.218;9.882;2023-01-30T01:23:38;16.30;;;8.30;;
13061;SDS011;6597;52.218;9.882;2023-01-30T01:26:04;18.83;;;9.50;;
13061;SDS011;6597;52.218;9.882;2023-01-30T01:28:34;17.90;;;9.57;;
13061;SDS011;6597;52.218;9.882;2023-01-30T01:31:06;12.77;;;7.53;;
13061;SDS011;6597;52.218;9.882;2023-01-30T01:33:33;18.57;;;9.90;;
13061;SDS011;6597;52.218;9.882;2023-01-30T01:35:59;13.37;;;7.23;;
13061;SDS011;6597;52.218;9.882;2023-01-30T01:38:26;16.53;;;9.57;;
13061;SDS011;6597;52.218;9.882;2023-01-30T01:40:52;23.47;;;9.77;;
13061;SDS011;6597;52.218;9.882;2023-01-30T01:43:28;17.83;;;10.07;;
13061;SDS011;6597;52.218;9.882;2023-01-30T01:45:59;15.47;;;7.70;;
13061;SDS011;6597;52.218;9.882;2023-01-30T01:48:30;14.23;;;7.83;;
13061;SDS011;6597;52.218;9.882;2023-01-30T01:51:00;16.73;;;8.23;;
13061;SDS011;6597;52.218;9.882;2023-01-30T01:53:31;16.53;;;7.57;;
13061;SDS011;6597;52.218;9.882;2023-01-30T01:56:01;16.50;;;7.77;;
13061;SDS011;6597;52.218;9.882;2023-01-30T01:58:30;12.97;;;6.07;;
13061;SDS011;6597;52.218;9.882;2023-01-30T02:01:03;15.93;;;8.87;;
13061;SDS011;6597;52.218;9.882;2023-01-30T02:03:32;19.80;;;8.40;;
13061;SDS011;6597;52.218;9.882;2023-01-30T02:06:02;13.27;;;7.93;;
13061;SDS011;6597;52.218;9.882;2023-01-30T02:08:30;14.27;;;7.67;;
13061;SDS011;6597;52.218;9.882;2023-01-30T02:11:02;16.03;;;8.50;;
13061;SDS011;6597;52.218;9.882;2023-01-30T02:13:35;12.80;;;6.87;;
13061;SDS011;6597;52.218;9.882;2023-01-30T02:16:05;13.20;;;7.73;;
13061;SDS011;6597;52.218;9.882;2023-01-30T02:18:33;16.17;;;6.97;;
13061;SDS011;6597;52.218;9.882;2023-01-30T02:21:05;18.80;;;8.03;;
13061;SDS011;6597;52.218;9.882;2023-01-30T02:24:12;13.53;;;7.50;;
13061;SDS011;6597;52.218;9.882;2023-01-30T02:27:11;13.87;;;7.70;;
13061;SDS011;6597;52.218;9.882;2023-01-30T02:30:01;13.63;;;6.47;;
13061;SDS011;6597;52.218;9.882;2023-01-30T02:32:42;13.90;;;6.93;;
13061;SDS011;6597;52.218;9.882;2023-01-30T02:35:16;14.40;;;7.57;;
13061;SDS011;6597;52.218;9.882;2023-01-30T02:37:53;13.10;;;7.57;;
13061;SDS011;6597;52.218;9.882;2023-01-30T02:40:32;10.67;;;6.63;;
13061;SDS011;6597;52.218;9.882;2023-01-30T02:43:10;11.77;;;6.93;;
13061;SDS011;6597;52.218;9.882;2023-01-30T02:45:43;12.53;;;6.90;;
13061;SDS011;6597;52.218;9.882;2023-01-30T02:48:20;15.40;;;7.00;;
13061;SDS011;6597;52.218;9.882;2023-01-30T02:50:52;15.53;;;7.80;;
13061;SDS011;6597;52.218;9.882;2023-01-30T02:53:23;13.43;;;7.57;;
13061;SDS011;6597;52.218;9.882;2023-01-30T02:55:50;13.77;;;6.90;;
13061;SDS011;6597;52.218;9.882;2023-01-30T02:58:17;11.97;;;6.23;;
13061;SDS011;6597;52.218;9.882;2023-01-30T03:04:05;12.77;;;6.10;;
13061;SDS011;6597;52.218;9.882;2023-01-30T03:06:46;14.90;;;7.10;;
13061;SDS011;6597;52.218;9.882;2023-01-30T03:09:24;14.17;;;7.57;;
13061;SDS011;6597;52.218;9.882;2023-01-30T03:12:02;11.77;;;6.80;;
13061;SDS011;6597;52.218;9.882;2023-01-30T03:14:36;15.80;;;7.00;;
13061;SDS011;6597;52.218;9.882;2023-01-30T03:17:11;14.80;;;8.07;;
13061;SDS011;6597;52.218;9.882;2023-01-30T03:19:41;15.03;;;7.50;;
13061;SDS011;6597;52.218;9.882;2023-01-30T03:22:09;20.73;;;8.90;;
13061;SDS011;6597;52.218;9.882;2023-01-30T03:24:35;16.77;;;8.37;;
13061;SDS011;6597;52.218;9.882;2023-01-30T03:27:03;16.40;;;8.37;;
13061;SDS011;6597;52.218;9.882;2023-01-30T03:29:33;22.33;;;8.37;;
13061;SDS011;6597;52.218;9.882;2023-01-30T03:32:00;17.03;;;8.50;;
13061;SDS011;6597;52.218;9.882;2023-01-30T03:34:27;13.37;;;7.37;;
13061;SDS011;6597;52.218;9.882;2023-01-30T03:36:55;12.70;;;7.40;;
13061;SDS011;6597;52.218;9.882;2023-01-30T03:39:22;15.77;;;8.27;;
13061;SDS011;6597;52.218;9.882;2023-01-30T03:41:49;20.07;;;9.30;;
13061;SDS011;6597;52.218;9.882;2023-01-30T03:44:16;19.70;;;9.83;;
13061;SDS011;6597;52.218;9.882;2023-01-30T03:46:43;15.60;;;7.73;;
13061;SDS011;6597;52.218;9.882;2023-01-30T03:49:10;15.77;;;8.40;;
13061;SDS011;6597;52.218;9.882;2023-01-30T03:51:36;13.57;;;7.30;;
13061;SDS011;6597;52.218;9.882;2023-01-30T03:54:04;13.93;;;8.60;;
13061;SDS011;6597;52.218;9.882;2023-01-30T03:56:31;15.17;;;8.00;;
13061;SDS011;6597;52.218;9.882;2023-01-30T03:58:58;13.03;;;7.23;;
13061;SDS011;6597;52.218;9.882;2023-01-30T04:01:33;19.57;;;7.97;;
13061;SDS011;6597;52.218;9.882;2023-01-30T04:04:00;11.43;;;6.13;;
13061;SDS011;6597;52.218;9.882;2023-01-30T04:06:27;10.70;;;6.17;;
13061;SDS011;6597;52.218;9.882;2023-01-30T04:08:55;14.87;;;7.60;;
13061;SDS011;6597;52.218;9.882;2023-01-30T04:11:35;19.10;;;8.07;;
13061;SDS011;6597;52.218;9.882;2023-01-30T04:14:02;14.33;;;6.67;;
13061;SDS011;6597;52.218;9.882;2023-01-30T04:16:30;18.17;;;8.37;;
13061;SDS011;6597;52.218;9.882;2023-01-30T04:19:15;15.67;;;8.00;;
13061;SDS011;6597;52.218;9.882;2023-01-30T04:21:43;16.77;;;7.60;;
13061;SDS011;6597;52.218;9.882;2023-01-30T04:24:10;18.67;;;8.43;;
13061;SDS011;6597;52.218;9.882;2023-01-30T04:26:38;16.10;;;7.57;;
13061;SDS011;6597;52.218;9.882;2023-01-30T04:29:05;18.73;;;7.83;;
13061;SDS011;6597;52.218;9.882;2023-01-30T04:31:33;14.83;;;7.47;;
13061;SDS011;6597;52.218;9.882;2023-01-30T04:34:04;9.83;;;6.23;;
13061;SDS011;6597;52.218;9.882;2023-01-30T04:36:30;14.67;;;6.80;;
13061;SDS011;6597;52.218;9.882;2023-01-30T04:38:57;11.83;;;6.97;;
13061;SDS011;6597;52.218;9.882;2023-01-30T04:41:25;11.40;;;7.13;;
13061;SDS011;6597;52.218;9.882;2023-01-30T04:43:57;11.77;;;6.57;;
13061;SDS011;6597;52.218;9.882;2023-01-30T04:46:36;9.07;;;5.60;;
13061;SDS011;6597;52.218;9.882;2023-01-30T04:49:02;10.43;;;6.43;;
13061;SDS011;6597;52.218;9.882;2023-01-30T04:51:29;13.80;;;6.77;;
13061;SDS011;6597;52.218;9.882;2023-01-30T04:53:57;11.93;;;5.10;;
13061;SDS011;6597;52.218;9.882;2023-01-30T04:56:24;11.43;;;6.40;;
13061;SDS011;6597;52.218;9.882;2023-01-30T04:58:51;9.87;;;5.70;;
13061;SDS011;6597;52.218;9.882;2023-01-30T05:01:21;9.30;;;5.37;;
13061;SDS011;6597;52.218;9.882;2023-01-30T05:03:50;11.30;;;6.30;;
13061;SDS011;6597;52.218;9.882;2023-01-30T05:06:18;8.13;;;4.93;;
13061;SDS011;6597;52.218;9.882;2023-01-30T05:08:46;10.20;;;6.17;;
13061;SDS011;6597;52.218;9.882;2023-01-30T05:11:14;11.13;;;6.63;;
13061;SDS011;6597;52.218;9.882;2023-01-30T05:13:41;9.27;;;5.27;;
13061;SDS011;6597;52.218;9.882;2023-01-30T05:16:08;14.07;;;6.00;;
13061;SDS011;6597;52.218;9.882;2023-01-30T05:18:36;11.33;;;5.80;;
13061;SDS011;6597;52.218;9.882;2023-01-30T05:21:03;10.83;;;6.03;;
13061;SDS011;6597;52.218;9.882;2023-01-30T05:23:31;7.73;;;4.20;;
13061;SDS011;6597;52.218;9.882;2023-01-30T05:25:57;8.63;;;5.27;;
13061;SDS011;6597;52.218;9.882;2023-01-30T05:28:24;8.33;;;4.83;;
13061;SDS011;6597;52.218;9.882;2023-01-30T05:30:50;9.33;;;4.87;;
13061;SDS011;6597;52.218;9.882;2023-01-30T05:33:17;6.70;;;4.97;;
13061;SDS011;6597;52.218;9.882;2023-01-30T05:35:46;9.93;;;5.50;;
13061;SDS011;6597;52.218;9.882;2023-01-30T05:38:13;8.57;;;4.77;;
13061;SDS011;6597;52.218;9.882;2023-01-30T05:40:40;8.83;;;4.83;;
13061;SDS011;6597;52.218;9.882;2023-01-30T05:43:06;7.83;;;4.43;;
13061;SDS011;6597;52.218;9.882;2023-01-30T05:45:33;6.70;;;4.30;;
13061;SDS011;6597;52.218;9.882;2023-01-30T05:48:00;5.43;;;3.83;;
13061;SDS011;6597;52.218;9.882;2023-01-30T05:50:27;5.73;;;3.40;;
13061;SDS011;6597;52.218;9.882;2023-01-30T05:52:57;5.50;;;3.00;;
13061;SDS011;6597;52.218;9.882;2023-01-30T05:55:24;7.53;;;3.77;;
13061;SDS011;6597;52.218;9.882;2023-01-30T05:57:50;7.77;;;4.10;;
13061;SDS011;6597;52.218;9.882;2023-01-30T06:00:17;5.60;;;3.43;;
13061;SDS011;6597;52.218;9.882;2023-01-30T06:02:44;5.83;;;3.63;;
13061;SDS011;6597;52.218;9.882;2023-01-30T06:05:11;3.50;;;2.80;;
13061;SDS011;6597;52.218;9.882;2023-01-30T06:07:37;6.83;;;4.07;;
13061;SDS011;6597;52.218;9.882;2023-01-30T06:10:05;6.17;;;3.40;;
13061;SDS011;6597;52.218;9.882;2023-01-30T06:12:32;6.10;;;2.97;;
13061;SDS011;6597;52.218;9.882;2023-01-30T06:14:59;4.17;;;3.00;;
13061;SDS011;6597;52.218;9.882;2023-01-30T06:17:25;7.27;;;3.50;;
13061;SDS011;6597;52.218;9.882;2023-01-30T06:19:52;5.77;;;3.47;;
13061;SDS011;6597;52.218;9.882;2023-01-30T06:22:18;6.87;;;3.13;;
13061;SDS011;6597;52.218;9.882;2023-01-30T06:24:45;4.73;;;3.10;;
13061;SDS011;6597;52.218;9.882;2023-01-30T06:27:13;5.23;;;3.43;;
13061;SDS011;6597;52.218;9.882;2023-01-30T06:29:39;6.20;;;2.63;;
13061;SDS011;6597;52.218;9.882;2023-01-30T06:32:06;7.63;;;3.43;;
13061;SDS011;6597;52.218;9.882;2023-01-30T06:34:33;5.90;;;2.93;;
13061;SDS011;6597;52.218;9.882;2023-01-30T06:37:00;5.13;;;3.50;;
13061;SDS011;6597;52.218;9.882;2023-01-30T06:39:26;4.80;;;3.03;;
13061;SDS011;6597;52.218;9.882;2023-01-30T06:41:53;3.40;;;2.60;;
13061;SDS011;6597;52.218;9.882;2023-01-30T06:44:21;6.40;;;3.20;;
13061;SDS011;6597;52.218;9.882;2023-01-30T06:46:47;4.20;;;2.87;;
13061;SDS011;6597;52.218;9.882;2023-01-30T06:49:14;4.97;;;2.40;;
13061;SDS011;6597;52.218;9.882;2023-01-30T06:51:40;4.10;;;2.70;;
13061;SDS011;6597;52.218;9.882;2023-01-30T06:54:07;4.17;;;2.50;;
13061;SDS011;6597;52.218;9.882;2023-01-30T06:56:33;4.37;;;2.33;;
13061;SDS011;6597;52.218;9.882;2023-01-30T06:59:00;6.77;;;2.23;;
13061;SDS011;6597;52.218;9.882;2023-01-30T07:01:28;4.87;;;2.10;;
13061;SDS011;6597;52.218;9.882;2023-01-30T07:03:54;5.97;;;2.03;;
13061;SDS011;6597;52.218;9.882;2023-01-30T07:06:21;3.50;;;1.93;;
13061;SDS011;6597;52.218;9.882;2023-01-30T07:08:47;5.40;;;1.40;;
13061;SDS011;6597;52.218;9.882;2023-01-30T07:11:14;1.83;;;1.40;;
13061;SDS011;6597;52.218;9.882;2023-01-30T07:13:41;2.13;;;1.10;;
13061;SDS011;6597;52.218;9.882;2023-01-30T07:16:07;12.20;;;2.60;;
13061;SDS011;6597;52.218;9.882;2023-01-30T07:18:35;3.30;;;2.00;;
13061;SDS011;6597;52.218;9.882;2023-01-30T07:21:01;6.17;;;1.97;;
13061;SDS011;6597;52.218;9.882;2023-01-30T07:23:28;4.77;;;1.80;;
13061;SDS011;6597;52.218;9.882;2023-01-30T07:25:55;3.57;;;1.67;;
13061;SDS011;6597;52.218;9.882;2023-01-30T07:28:21;3.67;;;1.87;;
13061;SDS011;6597;52.218;9.882;2023-01-30T07:30:48;12.03;;;2.23;;
13061;SDS011;6597;52.218;9.882;2023-01-30T07:33:16;7.67;;;1.83;;
13061;SDS011;6597;52.218;9.882;2023-01-30T07:35:45;5.37;;;1.73;;
13061;SDS011;6597;52.218;9.882;2023-01-30T07:38:11;8.47;;;2.10;;
13061;SDS011;6597;52.218;9.882;2023-01-30T07:40:38;3.40;;;1.30;;
13061;SDS011;6597;52.218;9.882;2023-01-30T07:43:05;2.90;;;1.80;;
13061;SDS011;6597;52.218;9.882;2023-01-30T07:45:34;12.33;;;1.77;;
13061;SDS011;6597;52.218;9.882;2023-01-30T07:48:02;3.00;;;1.30;;
13061;SDS011;6597;52.218;9.882;2023-01-30T07:50:29;5.17;;;1.67;;
13061;SDS011;6597;52.218;9.882;2023-01-30T07:52:57;7.40;;;1.63;;
13061;SDS011;6597;52.218;9.882;2023-01-30T07:55:24;3.87;;;1.33;;
13061;SDS011;6597;52.218;9.882;2023-01-30T07:57:50;7.47;;;1.67;;
13061;SDS011;6597;52.218;9.882;2023-01-30T08:00:17;3.90;;;1.40;;
13061;SDS011;6597;52.218;9.882;2023-01-30T08:02:45;3.70;;;1.20;;
13061;SDS011;6597;52.218;9.882;2023-01-30T08:05:11;5.07;;;1.63;;
13061;SDS011;6597;52.218;9.882;2023-01-30T08:07:38;7.47;;;1.53;;
13061;SDS011;6597;52.218;9.882;2023-01-30T08:10:07;4.03;;;2.07;;
13061;SDS011;6597;52.218;9.882;2023-01-30T08:12:34;7.87;;;1.37;;
13061;SDS011;6597;52.218;9.882;2023-01-30T08:15:01;1.43;;;0.90;;
13061;SDS011;6597;52.218;9.882;2023-01-30T08:17:28;3.07;;;1.30;;
13061;SDS011;6597;52.218;9.882;2023-01-30T08:19:54;7.70;;;1.53;;
13061;SDS011;6597;52.218;9.882;2023-01-30T08:22:21;8.10;;;1.43;;
13061;SDS011;6597;52.218;9.882;2023-01-30T08:24:47;6.17;;;1.47;;
13061;SDS011;6597;52.218;9.882;2023-01-30T08:27:15;8.87;;;1.80;;
13061;SDS011;6597;52.218;9.882;2023-01-30T08:29:42;9.67;;;1.80;;
13061;SDS011;6597;52.218;9.882;2023-01-30T08:32:09;6.20;;;1.43;;
13061;SDS011;6597;52.218;9.882;2023-01-30T08:34:35;3.80;;;1.60;;
13061;SDS011;6597;52.218;9.882;2023-01-30T08:37:02;1.83;;;1.10;;
13061;SDS011;6597;52.218;9.882;2023-01-30T08:39:28;10.77;;;1.73;;
13061;SDS011;6597;52.218;9.882;2023-01-30T08:41:55;5.63;;;1.40;;
13061;SDS011;6597;52.218;9.882;2023-01-30T08:44:23;7.20;;;2.00;;
13061;SDS011;6597;52.218;9.882;2023-01-30T08:46:49;3.70;;;1.50;;
13061;SDS011;6597;52.218;9.882;2023-01-30T08:49:16;3.40;;;1.60;;
13061;SDS011;6597;52.218;9.882;2023-01-30T08:51:43;8.17;;;2.07;;
13061;SDS011;6597;52.218;9.882;2023-01-30T08:54:09;10.37;;;1.63;;
13061;SDS011;6597;52.218;9.882;2023-01-30T08:56:36;2.80;;;0.87;;
13061;SDS011;6597;52.218;9.882;2023-01-30T08:59:02;3.03;;;1.30;;
13061;SDS011;6597;52.218;9.882;2023-01-30T09:01:30;12.10;;;2.17;;
13061;SDS011;6597;52.218;9.882;2023-01-30T09:03:57;8.33;;;1.40;;
13061;SDS011;6597;52.218;9.882;2023-01-30T09:06:23;4.47;;;1.07;;
13061;SDS011;6597;52.218;9.882;2023-01-30T09:08:50;5.53;;;1.43;;
13061;SDS011;6597;52.218;9.882;2023-01-30T09:11:16;6.13;;;1.23;;
13061;SDS011;6597;52.218;9.882;2023-01-30T09:13:43;5.23;;;1.10;;
13061;SDS011;6597;52.218;9.882;2023-01-30T09:16:10;7.63;;;1.50;;
13061;SDS011;6597;52.218;9.882;2023-01-30T09:18:39;5.73;;;1.67;;
13061;SDS011;6597;52.218;9.882;2023-01-30T09:21:05;5.60;;;1.63;;
13061;SDS011;6597;52.218;9.882;2023-01-30T09:23:32;8.17;;;1.70;;
13061;SDS011;6597;52.218;9.882;2023-01-30T09:25:59;3.07;;;1.20;;
13061;SDS011;6597;52.218;9.882;2023-01-30T09:28:26;15.53;;;2.17;;
13061;SDS011;6597;52.218;9.882;2023-01-30T09:30:55;5.40;;;1.50;;
13061;SDS011;6597;52.218;9.882;2023-01-30T09:33:22;9.47;;;1.80;;
13061;SDS011;6597;52.218;9.882;2023-01-30T09:35:50;5.57;;;1.50;;
13061;SDS011;6597;52.218;9.882;2023-01-30T09:38:17;6.03;;;1.50;;
13061;SDS011;6597;52.218;9.882;2023-01-30T09:40:46;4.27;;;1.30;;
13061;SDS011;6597;52.218;9.882;2023-01-30T09:43:27;9.50;;;2.53;;
13061;SDS011;6597;52.218;9.882;2023-01-30T09:46:08;9.23;;;1.73;;
13061;SDS011;6597;52.218;9.882;2023-01-30T09:48:46;4.77;;;1.33;;
13061;SDS011;6597;52.218;9.882;2023-01-30T09:51:24;8.03;;;1.70;;
13061;SDS011;6597;52.218;9.882;2023-01-30T09:56:55;4.93;;;1.37;;
13061;SDS011;6597;52.218;9.882;2023-01-30T09:59:28;10.50;;;1.47;;
13061;SDS011;6597;52.218;9.882;2023-01-30T10:02:04;11.03;;;1.87;;
13061;SDS011;6597;52.218;9.882;2023-01-30T10:04:47;5.83;;;1.43;;
13061;SDS011;6597;52.218;9.882;2023-01-30T10:07:16;7.30;;;2.17;;
13061;SDS011;6597;52.218;9.882;2023-01-30T10:09:52;5.63;;;1.63;;
13061;SDS011;6597;52.218;9.882;2023-01-30T10:12:28;9.03;;;1.53;;
13061;SDS011;6597;52.218;9.882;2023-01-30T10:15:10;3.20;;;1.20;;
13061;SDS011;6597;52.218;9.882;2023-01-30T10:17:50;9.90;;;2.00;;
13061;SDS011;6597;52.218;9.882;2023-01-30T10:20:34;6.17;;;1.53;;
13061;SDS011;6597;52.218;9.882;2023-01-30T10:23:35;5.57;;;1.60;;
13061;SDS011;6597;52.218;9.882;2023-01-30T10:26:13;3.33;;;1.73;;
13061;SDS011;6597;52.218;9.882;2023-01-30T10:28:45;5.67;;;1.50;;
13061;SDS011;6597;52.218;9.882;2023-01-30T10:31:19;6.43;;;1.20;;
13061;SDS011;6597;52.218;9.882;2023-01-30T10:33:51;7.10;;;1.57;;
13061;SDS011;6597;52.218;9.882;2023-01-30T10:36:24;2.57;;;1.77;;
13061;SDS011;6597;52.218;9.882;2023-01-30T10:38:59;8.43;;;1.70;;
13061;SDS011;6597;52.218;9.882;2023-01-30T10:41:28;8.97;;;1.60;;
13061;SDS011;6597;52.218;9.882;2023-01-30T10:44:01;6.77;;;2.00;;
13061;SDS011;6597;52.218;9.882;2023-01-30T10:46:34;7.10;;;1.70;;
13061;SDS011;6597;52.218;9.882;2023-01-30T10:49:14;5.77;;;3.60;;
13061;SDS011;6597;52.218;9.882;2023-01-30T10:51:46;7.60;;;1.73;;
13061;SDS011;6597;52.218;9.882;2023-01-30T10:54:22;7.83;;;1.37;;
13061;SDS011;6597;52.218;9.882;2023-01-30T10:56:55;6.53;;;1.33;;
13061;SDS011;6597;52.218;9.882;2023-01-30T10:59:31;6.47;;;1.43;;
13061;SDS011;6597;52.218;9.882;2023-01-30T11:02:11;7.03;;;1.80;;
13061;SDS011;6597;52.218;9.882;2023-01-30T11:04:49;4.10;;;1.27;;
13061;SDS011;6597;52.218;9.882;2023-01-30T11:07:22;7.23;;;1.43;;
13061;SDS011;6597;52.218;9.882;2023-01-30T11:09:50;4.07;;;1.53;;
13061;SDS011;6597;52.218;9.882;2023-01-30T11:12:17;6.77;;;1.63;;
13061;SDS011;6597;52.218;9.882;2023-01-30T11:14:50;10.03;;;1.67;;
13061;SDS011;6597;52.218;9.882;2023-01-30T11:17:19;9.93;;;1.53;;
13061;SDS011;6597;52.218;9.882;2023-01-30T11:19:53;3.37;;;1.47;;
13061;SDS011;6597;52.218;9.882;2023-01-30T11:22:22;3.50;;;1.57;;
13061;SDS011;6597;52.218;9.882;2023-01-30T11:25:00;12.27;;;2.33;;
13061;SDS011;6597;52.218;9.882;2023-01-30T11:27:30;7.00;;;1.30;;
13061;SDS011;6597;52.218;9.882;2023-01-30T11:30:02;7.13;;;1.83;;
13061;SDS011;6597;52.218;9.882;2023-01-30T11:32:37;5.90;;;1.37;;
13061;SDS011;6597;52.218;9.882;2023-01-30T11:35:19;2.73;;;1.60;;
13061;SDS011;6597;52.218;9.882;2023-01-30T11:37:50;3.73;;;1.33;;
13061;SDS011;6597;52.218;9.882;2023-01-30T11:40:21;7.53;;;1.37;;
13061;SDS011;6597;52.218;9.882;2023-01-30T11:42:51;5.40;;;1.10;;
13061;SDS011;6597;52.218;9.882;2023-01-30T11:45:23;12.97;;;1.83;;
13061;SDS011;6597;52.218;9.882;2023-01-30T11:47:55;6.57;;;1.37;;
13061;SDS011;6597;52.218;9.882;2023-01-30T11:50:28;5.43;;;1.30;;
13061;SDS011;6597;52.218;9.882;2023-01-30T11:52:59;7.83;;;1.73;;
13061;SDS011;6597;52.218;9.882;2023-01-30T11:55:29;7.53;;;1.80;;
13061;SDS011;6597;52.218;9.882;2023-01-30T11:58:00;6.97;;;1.63;;
13061;SDS011;6597;52.218;9.882;2023-01-30T12:00:37;6.80;;;1.50;;
13061;SDS011;6597;52.218;9.882;2023-01-30T12:03:09;5.60;;;1.47;;
13061;SDS011;6597;52.218;9.882;2023-01-30T12:05:37;14.13;;;1.93;;
13061;SDS011;6597;52.218;9.882;2023-01-30T12:08:11;7.27;;;1.60;;
13061;SDS011;6597;52.218;9.882;2023-01-30T12:10:41;10.70;;;1.33;;
13061;SDS011;6597;52.218;9.882;2023-01-30T12:13:12;5.97;;;1.63;;
13061;SDS011;6597;52.218;9.882;2023-01-30T12:15:44;12.63;;;2.20;;
13061;SDS011;6597;52.218;9.882;2023-01-30T12:18:15;6.57;;;1.50;;
13061;SDS011;6597;52.218;9.882;2023-01-30T12:20:47;2.83;;;1.10;;
13061;SDS011;6597;52.218;9.882;2023-01-30T12:23:20;5.60;;;1.63;;
13061;SDS011;6597;52.218;9.882;2023-01-30T12:26:00;5.10;;;1.47;;
13061;SDS011;6597;52.218;9.882;2023-01-30T12:28:34;5.87;;;1.60;;
13061;SDS011;6597;52.218;9.882;2023-01-30T12:31:07;6.27;;;1.40;;
13061;SDS011;6597;52.218;9.882;2023-01-30T12:33:38;2.90;;;0.93;;
13061;SDS011;6597;52.218;9.882;2023-01-30T12:36:08;9.77;;;1.20;;
13061;SDS011;6597;52.218;9.882;2023-01-30T12:41:46;4.43;;;1.43;;
13061;SDS011;6597;52.218;9.882;2023-01-30T12:44:27;3.53;;;1.40;;
13061;SDS011;6597;52.218;9.882;2023-01-30T12:47:06;4.17;;;1.40;;
13061;SDS011;6597;52.218;9.882;2023-01-30T12:49:49;7.50;;;1.43;;
13061;SDS011;6597;52.218;9.882;2023-01-30T12:52:40;4.20;;;0.73;;
13061;SDS011;6597;52.218;9.882;2023-01-30T12:55:21;7.40;;;1.50;;
13061;SDS011;6597;52.218;9.882;2023-01-30T12:57:58;2.33;;;1.07;;
13061;SDS011;6597;52.218;9.882;2023-01-30T13:00:30;2.80;;;1.10;;
13061;SDS011;6597;52.218;9.882;2023-01-30T13:03:17;5.73;;;1.43;;
13061;SDS011;6597;52.218;9.882;2023-01-30T13:05:50;10.83;;;1.10;;
13061;SDS011;6597;52.218;9.882;2023-01-30T13:08:28;0.93;;;0.70;;
13061;SDS011;6597;52.218;9.882;2023-01-30T13:11:05;0.97;;;0.80;;
13061;SDS011;6597;52.218;9.882;2023-01-30T13:13:42;6.40;;;1.03;;
13061;SDS011;6597;52.218;9.882;2023-01-30T13:16:17;5.83;;;1.33;;
13061;SDS011;6597;52.218;9.882;2023-01-30T13:18:53;5.87;;;1.23;;
13061;SDS011;6597;52.218;9.882;2023-01-30T13:21:24;4.33;;;1.03;;
13061;SDS011;6597;52.218;9.882;2023-01-30T13:24:00;1.03;;;0.70;;
13061;SDS011;6597;52.218;9.882;2023-01-30T13:26:36;4.60;;;0.87;;
13061;SDS011;6597;52.218;9.882;2023-01-30T13:29:10;7.30;;;1.80;;
13061;SDS011;6597;52.218;9.882;2023-01-30T13:31:44;10.27;;;1.53;;
13061;SDS011;6597;52.218;9.882;2023-01-30T13:34:16;5.47;;;1.30;;
13061;SDS011;6597;52.218;9.882;2023-01-30T13:36:51;0.40;;;0.30;;
13061;SDS011;6597;52.218;9.882;2023-01-30T13:39:26;13.23;;;1.80;;
13061;SDS011;6597;52.218;9.882;2023-01-30T13:42:00;7.90;;;1.50;;
13061;SDS011;6597;52.218;9.882;2023-01-30T13:44:31;3.70;;;1.60;;
13061;SDS011;6597;52.218;9.882;2023-01-30T13:47:06;11.40;;;1.70;;
13061;SDS011;6597;52.218;9.882;2023-01-30T13:49:37;6.10;;;1.83;;
13061;SDS011;6597;52.218;9.882;2023-01-30T13:52:12;9.33;;;1.80;;
13061;SDS011;6597;52.218;9.882;2023-01-30T13:54:45;7.27;;;1.27;;
13061;SDS011;6597;52.218;9.882;2023-01-30T13:57:24;6.90;;;1.23;;
13061;SDS011;6597;52.218;9.882;2023-01-30T14:00:07;9.37;;;1.57;;
13061;SDS011;6597;52.218;9.882;2023-01-30T14:06:11;2.77;;;0.90;;
13061;SDS011;6597;52.218;9.882;2023-01-30T14:08:53;7.80;;;0.90;;
13061;SDS011;6597;52.218;9.882;2023-01-30T14:11:31;1.70;;;0.70;;
13061;SDS011;6597;52.218;9.882;2023-01-30T14:16:53;1.30;;;0.83;;
13061;SDS011;6597;52.218;9.882;2023-01-30T14:19:34;4.30;;;0.83;;
13061;SDS011;6597;52.218;9.882;2023-01-30T14:22:16;3.50;;;0.63;;
13061;SDS011;6597;52.218;9.882;2023-01-30T14:27:45;2.40;;;0.60;;
13061;SDS011;6597;52.218;9.882;2023-01-30T14:33:02;3.67;;;0.97;;
13061;SDS011;6597;52.218;9.882;2023-01-30T14:36:27;4.90;;;1.27;;
13061;SDS011;6597;52.218;9.882;2023-01-30T14:38:55;3.83;;;0.77;;
13061;SDS011;6597;52.218;9.882;2023-01-30T14:41:43;3.90;;;1.13;;
13061;SDS011;6597;52.218;9.882;2023-01-30T14:47:20;4.57;;;1.30;;
13061;SDS011;6597;52.218;9.882;2023-01-30T14:49:48;5.77;;;1.00;;
13061;SDS011;6597;52.218;9.882;2023-01-30T14:52:22;5.83;;;1.23;;
13061;SDS011;6597;52.218;9.882;2023-01-30T14:54:55;15.90;;;1.93;;
13061;SDS011;6597;52.218;9.882;2023-01-30T14:57:24;9.57;;;1.20;;
13061;SDS011;6597;52.218;9.882;2023-01-30T14:59:57;6.03;;;1.60;;
13061;SDS011;6597;52.218;9.882;2023-01-30T15:02:26;8.83;;;1.47;;
13061;SDS011;6597;52.218;9.882;2023-01-30T15:05:01;8.97;;;3.10;;
13061;SDS011;6597;52.218;9.882;2023-01-30T15:07:34;2.10;;;0.93;;
13061;SDS011;6597;52.218;9.882;2023-01-30T15:10:05;2.77;;;1.10;;
13061;SDS011;6597;52.218;9.882;2023-01-30T15:12:48;10.60;;;1.67;;
13061;SDS011;6597;52.218;9.882;2023-01-30T15:15:38;9.83;;;2.03;;
13061;SDS011;6597;52.218;9.882;2023-01-30T15:18:14;7.53;;;1.97;;
13061;SDS011;6597;52.218;9.882;2023-01-30T15:20:57;4.97;;;1.07;;
13061;SDS011;6597;52.218;9.882;2023-01-30T15:23:58;8.07;;;1.77;;
13061;SDS011;6597;52.218;9.882;2023-01-30T15:26:41;6.07;;;1.13;;
13061;SDS011;6597;52.218;9.882;2023-01-30T15:32:21;6.63;;;1.43;;
13061;SDS011;6597;52.218;9.882;2023-01-30T15:34:50;6.57;;;1.43;;
13061;SDS011;6597;52.218;9.882;2023-01-30T15:37:31;3.63;;;1.27;;
13061;SDS011;6597;52.218;9.882;2023-01-30T15:40:10;5.80;;;1.47;;
13061;SDS011;6597;52.218;9.882;2023-01-30T15:42:44;6.60;;;1.60;;
13061;SDS011;6597;52.218;9.882;2023-01-30T15:45:16;4.40;;;1.50;;
13061;SDS011;6597;52.218;9.882;2023-01-30T15:47:53;8.40;;;1.30;;